sensor_id;sensor_type;location;lat;lon;timestamp;temperature;humidity
45868;DHT22;31582;45.490;7.860;2023-03-01T00:01:16;0.80;99.90
45868;DHT22;31582;45.490;7.860;2023-03-01T00:03:43;0.70;99.90
45868;DHT22;31582;45.490;7.860;2023-03-01T00:06:11;0.90;99.90
45868;DHT22;31582;45.490;7.860;2023-03-01T00:08:38;0.90;99.90
45868;DHT22;31582;45.490;7.860;2023-03-01T00:11:13;0.80;99.90
45868;DHT22;31582;45.490;7.860;2023-03-01T00:13:41;0.90;99.90
45868;DHT22;31582;45.490;7.860;2023-03-01T00:16:17;1.00;99.90
45868;DHT22;31582;45.490;7.860;2023-03-01T00:18:45;0.80;99.90
45868;DHT22;31582;45.490;7.860;2023-03-01T00:21:12;0.80;99.90
45868;DHT22;31582;45.490;7.860;2023-03-01T00:23:39;0.80;99.90
45868;DHT22;31582;45.490;7.860;2023-03-01T00:26:11;0.90;99.90
45868;DHT22;31582;45.490;7.860;2023-03-01T00:28:39;0.90;99.90
45868;DHT22;31582;45.490;7.860;2023-03-01T00:31:07;0.60;99.90
45868;DHT22;31582;45.490;7.860;2023-03-01T00:33:35;0.70;99.90
45868;DHT22;31582;45.490;7.860;2023-03-01T00:36:03;0.80;99.90
45868;DHT22;31582;45.490;7.860;2023-03-01T00:38:30;1.00;99.90
45868;DHT22;31582;45.490;7.860;2023-03-01T00:41:10;1.10;99.90
45868;DHT22;31582;45.490;7.860;2023-03-01T00:43:37;1.20;99.90
45868;DHT22;31582;45.490;7.860;2023-03-01T00:46:15;1.40;99.90
45868;DHT22;31582;45.490;7.860;2023-03-01T00:48:43;1.40;99.90
45868;DHT22;31582;45.490;7.860;2023-03-01T00:51:16;1.40;99.90
45868;DHT22;31582;45.490;7.860;2023-03-01T00:53:43;1.20;99.90
45868;DHT22;31582;45.490;7.860;2023-03-01T00:56:12;1.30;99.90
45868;DHT22;31582;45.490;7.860;2023-03-01T00:58:40;1.30;99.90
45868;DHT22;31582;45.490;7.860;2023-03-01T01:01:09;1.10;99.90
45868;DHT22;31582;45.490;7.860;2023-03-01T01:04:30;1.10;99.90
45868;DHT22;31582;45.490;7.860;2023-03-01T01:06:43;0.90;99.90
45868;DHT22;31582;45.490;7.860;2023-03-01T01:09:13;0.30;99.90
45868;DHT22;31582;45.490;7.860;2023-03-01T01:11:47;0.30;99.90
45868;DHT22;31582;45.490;7.860;2023-03-01T01:14:15;0.60;99.90
45868;DHT22;31582;45.490;7.860;2023-03-01T01:16:42;0.50;99.90
45868;DHT22;31582;45.490;7.860;2023-03-01T01:19:13;0.50;99.90
45868;DHT22;31582;45.490;7.860;2023-03-01T01:21:40;0.20;99.90
45868;DHT22;31582;45.490;7.860;2023-03-01T01:24:10;0.30;99.90
45868;DHT22;31582;45.490;7.860;2023-03-01T01:26:37;0.20;99.90
45868;DHT22;31582;45.490;7.860;2023-03-01T01:29:05;0.50;99.90
45868;DHT22;31582;45.490;7.860;2023-03-01T01:31:33;0.40;99.90
45868;DHT22;31582;45.490;7.860;2023-03-01T01:34:02;0.30;99.90
45868;DHT22;31582;45.490;7.860;2023-03-01T01:36:29;0.40;99.90
45868;DHT22;31582;45.490;7.860;2023-03-01T01:38:57;0.60;99.90
45868;DHT22;31582;45.490;7.860;2023-03-01T01:41:25;0.70;99.90
45868;DHT22;31582;45.490;7.860;2023-03-01T01:44:28;0.50;99.90
45868;DHT22;31582;45.490;7.860;2023-03-01T01:47:05;0.10;99.90
45868;DHT22;31582;45.490;7.860;2023-03-01T01:49:38;-0.10;99.90
45868;DHT22;31582;45.490;7.860;2023-03-01T01:52:25;0.00;99.90
45868;DHT22;31582;45.490;7.860;2023-03-01T01:55:03;0.30;99.90
45868;DHT22;31582;45.490;7.860;2023-03-01T01:57:40;0.30;99.90
45868;DHT22;31582;45.490;7.860;2023-03-01T02:00:14;0.40;99.90
45868;DHT22;31582;45.490;7.860;2023-03-01T08:46:33;6.80;91.40
45868;DHT22;31582;45.490;7.860;2023-03-01T08:49:04;6.90;91.60
45868;DHT22;31582;45.490;7.860;2023-03-01T08:51:31;6.90;90.90
45868;DHT22;31582;45.490;7.860;2023-03-01T08:54:04;7.00;89.40
45868;DHT22;31582;45.490;7.860;2023-03-01T08:56:32;7.40;83.60
45868;DHT22;31582;45.490;7.860;2023-03-01T08:58:59;7.40;84.30
45868;DHT22;31582;45.490;7.860;2023-03-01T09:01:26;7.40;75.10
45868;DHT22;31582;45.490;7.860;2023-03-01T09:03:53;6.70;74.60
45868;DHT22;31582;45.490;7.860;2023-03-01T09:06:20;6.40;82.70
45868;DHT22;31582;45.490;7.860;2023-03-01T09:08:49;6.90;75.90
45868;DHT22;31582;45.490;7.860;2023-03-01T09:11:19;6.60;79.60
45868;DHT22;31582;45.490;7.860;2023-03-01T09:13:47;6.70;81.00
45868;DHT22;31582;45.490;7.860;2023-03-01T09:16:16;6.90;79.30
45868;DHT22;31582;45.490;7.860;2023-03-01T09:18:44;7.00;80.30
45868;DHT22;31582;45.490;7.860;2023-03-01T09:21:14;6.80;86.50
45868;DHT22;31582;45.490;7.860;2023-03-01T09:23:44;6.80;85.40
45868;DHT22;31582;45.490;7.860;2023-03-01T09:26:14;6.90;86.90
45868;DHT22;31582;45.490;7.860;2023-03-01T09:28:43;7.00;86.70
45868;DHT22;31582;45.490;7.860;2023-03-01T09:31:12;6.30;80.50
45868;DHT22;31582;45.490;7.860;2023-03-01T09:33:40;6.20;87.30
45868;DHT22;31582;45.490;7.860;2023-03-01T09:36:12;6.30;89.90
45868;DHT22;31582;45.490;7.860;2023-03-01T09:38:39;6.50;83.60
45868;DHT22;31582;45.490;7.860;2023-03-01T09:44:13;6.50;86.50
45868;DHT22;31582;45.490;7.860;2023-03-01T09:46:44;7.00;82.60
45868;DHT22;31582;45.490;7.860;2023-03-01T09:49:21;7.10;80.90
45868;DHT22;31582;45.490;7.860;2023-03-01T09:51:59;7.30;75.70
45868;DHT22;31582;45.490;7.860;2023-03-01T09:54:26;7.10;72.40
45868;DHT22;31582;45.490;7.860;2023-03-01T09:59:59;7.30;72.00
45868;DHT22;31582;45.490;7.860;2023-03-01T10:02:41;7.40;74.50
45868;DHT22;31582;45.490;7.860;2023-03-01T10:08:24;8.10;68.10
45868;DHT22;31582;45.490;7.860;2023-03-01T10:10:53;8.50;64.80
45868;DHT22;31582;45.490;7.860;2023-03-01T10:16:13;8.40;66.00
45868;DHT22;31582;45.490;7.860;2023-03-01T10:18:41;8.30;66.80
45868;DHT22;31582;45.490;7.860;2023-03-01T10:21:14;8.50;65.10
45868;DHT22;31582;45.490;7.860;2023-03-01T10:23:42;8.60;64.10
45868;DHT22;31582;45.490;7.860;2023-03-01T10:26:37;8.10;69.30
45868;DHT22;31582;45.490;7.860;2023-03-01T10:29:10;8.10;70.60
45868;DHT22;31582;45.490;7.860;2023-03-01T10:36:42;7.80;64.50
45868;DHT22;31582;45.490;7.860;2023-03-01T10:39:15;8.10;66.40
45868;DHT22;31582;45.490;7.860;2023-03-01T10:42:03;7.30;64.80
45868;DHT22;31582;45.490;7.860;2023-03-01T10:44:46;7.70;67.40
45868;DHT22;31582;45.490;7.860;2023-03-01T10:47:22;8.30;65.60
45868;DHT22;31582;45.490;7.860;2023-03-01T10:50:09;8.40;63.60
45868;DHT22;31582;45.490;7.860;2023-03-01T10:52:56;8.90;63.00
45868;DHT22;31582;45.490;7.860;2023-03-01T10:55:35;8.90;60.30
45868;DHT22;31582;45.490;7.860;2023-03-01T10:58:08;9.40;59.70
45868;DHT22;31582;45.490;7.860;2023-03-01T11:00:50;9.10;59.80
45868;DHT22;31582;45.490;7.860;2023-03-01T11:03:36;8.50;62.00
45868;DHT22;31582;45.490;7.860;2023-03-01T11:08:45;9.00;62.00
45868;DHT22;31582;45.490;7.860;2023-03-01T11:11:14;9.00;61.30
45868;DHT22;31582;45.490;7.860;2023-03-01T11:16:37;9.60;60.80
45868;DHT22;31582;45.490;7.860;2023-03-01T11:19:16;9.00;56.50
45868;DHT22;31582;45.490;7.860;2023-03-01T11:24:39;10.10;59.00
45868;DHT22;31582;45.490;7.860;2023-03-01T11:29:48;10.50;56.00
45868;DHT22;31582;45.490;7.860;2023-03-01T11:32:19;10.80;55.00
45868;DHT22;31582;45.490;7.860;2023-03-01T11:34:58;10.70;55.20
45868;DHT22;31582;45.490;7.860;2023-03-01T11:37:46;10.00;59.30
45868;DHT22;31582;45.490;7.860;2023-03-01T11:40:17;9.70;59.30
45868;DHT22;31582;45.490;7.860;2023-03-01T12:08:20;9.80;60.30
45868;DHT22;31582;45.490;7.860;2023-03-01T12:13:55;10.10;60.00
45868;DHT22;31582;45.490;7.860;2023-03-01T12:16:35;10.00;60.00
45868;DHT22;31582;45.490;7.860;2023-03-01T12:30:27;10.10;61.80
45868;DHT22;31582;45.490;7.860;2023-03-01T12:36:06;10.60;60.70
45868;DHT22;31582;45.490;7.860;2023-03-01T12:47:41;9.20;63.20
45868;DHT22;31582;45.490;7.860;2023-03-01T12:52:53;9.80;63.30
45868;DHT22;31582;45.490;7.860;2023-03-01T12:58:24;10.70;58.70
45868;DHT22;31582;45.490;7.860;2023-03-01T13:01:13;10.20;61.60
45868;DHT22;31582;45.490;7.860;2023-03-01T13:04:12;10.30;58.80
45868;DHT22;31582;45.490;7.860;2023-03-01T13:09:41;10.60;56.60
45868;DHT22;31582;45.490;7.860;2023-03-01T13:17:53;9.70;60.80
45868;DHT22;31582;45.490;7.860;2023-03-01T13:20:26;10.00;61.00
45868;DHT22;31582;45.490;7.860;2023-03-01T13:26:06;10.00;60.90
45868;DHT22;31582;45.490;7.860;2023-03-01T13:31:02;10.00;60.30
45868;DHT22;31582;45.490;7.860;2023-03-01T13:35:58;9.60;59.70
45868;DHT22;31582;45.490;7.860;2023-03-01T13:38:45;9.60;61.00
45868;DHT22;31582;45.490;7.860;2023-03-01T13:41:17;9.60;60.90
45868;DHT22;31582;45.490;7.860;2023-03-01T13:49:51;10.20;60.40
45868;DHT22;31582;45.490;7.860;2023-03-01T13:52:39;9.40;61.40
45868;DHT22;31582;45.490;7.860;2023-03-01T13:57:57;9.70;62.40
45868;DHT22;31582;45.490;7.860;2023-03-01T14:03:17;10.20;58.90
45868;DHT22;31582;45.490;7.860;2023-03-01T14:06:26;10.30;58.90
45868;DHT22;31582;45.490;7.860;2023-03-01T14:09:25;10.40;58.80
45868;DHT22;31582;45.490;7.860;2023-03-01T14:19:59;9.70;61.40
45868;DHT22;31582;45.490;7.860;2023-03-01T14:22:31;10.00;61.40
45868;DHT22;31582;45.490;7.860;2023-03-01T14:25:02;9.50;62.90
45868;DHT22;31582;45.490;7.860;2023-03-01T14:27:38;9.50;62.40
45868;DHT22;31582;45.490;7.860;2023-03-01T14:30:21;9.50;62.30
45868;DHT22;31582;45.490;7.860;2023-03-01T14:33:01;9.70;63.70
45868;DHT22;31582;45.490;7.860;2023-03-01T14:35:34;9.60;63.30
45868;DHT22;31582;45.490;7.860;2023-03-01T14:38:02;9.60;64.00
45868;DHT22;31582;45.490;7.860;2023-03-01T14:42:58;9.70;63.60
45868;DHT22;31582;45.490;7.860;2023-03-01T14:45:29;9.40;63.50
45868;DHT22;31582;45.490;7.860;2023-03-01T14:48:02;9.10;65.40
45868;DHT22;31582;45.490;7.860;2023-03-01T14:50:34;9.10;67.10
45868;DHT22;31582;45.490;7.860;2023-03-01T14:53:05;9.00;66.40
45868;DHT22;31582;45.490;7.860;2023-03-01T14:55:40;8.90;66.50
45868;DHT22;31582;45.490;7.860;2023-03-01T14:58:20;8.90;67.30
45868;DHT22;31582;45.490;7.860;2023-03-01T15:00:54;8.80;67.10
45868;DHT22;31582;45.490;7.860;2023-03-01T15:03:33;8.80;69.30
45868;DHT22;31582;45.490;7.860;2023-03-01T15:06:03;8.80;68.50
45868;DHT22;31582;45.490;7.860;2023-03-01T15:08:31;8.80;69.50
45868;DHT22;31582;45.490;7.860;2023-03-01T15:11:04;8.70;69.30
45868;DHT22;31582;45.490;7.860;2023-03-01T15:13:35;8.70;69.40
45868;DHT22;31582;45.490;7.860;2023-03-01T15:16:11;8.60;70.30
45868;DHT22;31582;45.490;7.860;2023-03-01T15:18:59;8.60;70.70
45868;DHT22;31582;45.490;7.860;2023-03-01T15:21:38;8.60;72.30
45868;DHT22;31582;45.490;7.860;2023-03-01T15:27:05;8.60;70.30
45868;DHT22;31582;45.490;7.860;2023-03-01T15:29:34;8.60;68.90
45868;DHT22;31582;45.490;7.860;2023-03-01T15:34:51;8.60;67.50
45868;DHT22;31582;45.490;7.860;2023-03-01T15:37:44;8.70;68.90
45868;DHT22;31582;45.490;7.860;2023-03-01T15:40:23;8.80;67.50
45868;DHT22;31582;45.490;7.860;2023-03-01T15:43:03;8.90;65.80
45868;DHT22;31582;45.490;7.860;2023-03-01T15:45:33;8.90;66.60
45868;DHT22;31582;45.490;7.860;2023-03-01T15:48:03;8.80;66.90
45868;DHT22;31582;45.490;7.860;2023-03-01T15:50:31;8.90;65.60
45868;DHT22;31582;45.490;7.860;2023-03-01T15:53:09;8.80;64.60
45868;DHT22;31582;45.490;7.860;2023-03-01T15:55:38;9.00;64.40
45868;DHT22;31582;45.490;7.860;2023-03-01T15:58:24;8.90;63.50
45868;DHT22;31582;45.490;7.860;2023-03-01T16:00:53;8.70;63.60
45868;DHT22;31582;45.490;7.860;2023-03-01T16:03:28;8.80;64.30
45868;DHT22;31582;45.490;7.860;2023-03-01T16:05:55;8.80;63.40
45868;DHT22;31582;45.490;7.860;2023-03-01T16:08:22;8.50;64.10
45868;DHT22;31582;45.490;7.860;2023-03-01T16:10:50;8.70;64.50
45868;DHT22;31582;45.490;7.860;2023-03-01T16:13:18;8.80;64.00
45868;DHT22;31582;45.490;7.860;2023-03-01T16:15:45;8.80;64.70
45868;DHT22;31582;45.490;7.860;2023-03-01T16:18:14;8.70;63.90
45868;DHT22;31582;45.490;7.860;2023-03-01T16:20:41;8.80;64.10
45868;DHT22;31582;45.490;7.860;2023-03-01T16:23:10;8.70;64.50
45868;DHT22;31582;45.490;7.860;2023-03-01T16:25:37;8.70;64.10
45868;DHT22;31582;45.490;7.860;2023-03-01T16:28:04;8.40;64.10
45868;DHT22;31582;45.490;7.860;2023-03-01T16:30:38;8.50;64.50
45868;DHT22;31582;45.490;7.860;2023-03-01T16:33:06;8.60;64.30
45868;DHT22;31582;45.490;7.860;2023-03-01T16:35:57;8.70;64.80
45868;DHT22;31582;45.490;7.860;2023-03-01T16:38:26;8.90;64.40
45868;DHT22;31582;45.490;7.860;2023-03-01T16:40:53;8.80;64.70
45868;DHT22;31582;45.490;7.860;2023-03-01T16:43:20;8.40;66.90
45868;DHT22;31582;45.490;7.860;2023-03-01T16:45:47;8.20;67.40
45868;DHT22;31582;45.490;7.860;2023-03-01T16:48:15;8.10;68.50
45868;DHT22;31582;45.490;7.860;2023-03-01T16:50:42;8.10;69.50
45868;DHT22;31582;45.490;7.860;2023-03-01T16:53:09;8.00;72.50
45868;DHT22;31582;45.490;7.860;2023-03-01T16:55:36;7.90;75.50
45868;DHT22;31582;45.490;7.860;2023-03-01T16:58:04;7.90;75.40
45868;DHT22;31582;45.490;7.860;2023-03-01T17:00:32;7.80;82.40
45868;DHT22;31582;45.490;7.860;2023-03-01T17:02:59;7.70;81.20
45868;DHT22;31582;45.490;7.860;2023-03-01T17:05:26;7.60;81.20
45868;DHT22;31582;45.490;7.860;2023-03-01T17:07:53;7.40;84.50
45868;DHT22;31582;45.490;7.860;2023-03-01T17:10:24;7.30;90.40
45868;DHT22;31582;45.490;7.860;2023-03-01T17:12:51;7.30;93.10
45868;DHT22;31582;45.490;7.860;2023-03-01T17:15:18;7.10;94.70
45868;DHT22;31582;45.490;7.860;2023-03-01T17:17:45;7.00;95.40
45868;DHT22;31582;45.490;7.860;2023-03-01T17:20:15;7.00;93.70
45868;DHT22;31582;45.490;7.860;2023-03-01T17:22:42;6.90;98.50
45868;DHT22;31582;45.490;7.860;2023-03-01T17:25:10;7.10;97.30
45868;DHT22;31582;45.490;7.860;2023-03-01T17:27:37;7.30;98.10
45868;DHT22;31582;45.490;7.860;2023-03-01T17:30:07;7.10;99.90
45868;DHT22;31582;45.490;7.860;2023-03-01T17:32:35;7.00;99.90
45868;DHT22;31582;45.490;7.860;2023-03-01T17:35:02;7.30;99.90
45868;DHT22;31582;45.490;7.860;2023-03-01T17:37:29;7.40;99.90
45868;DHT22;31582;45.490;7.860;2023-03-01T17:39:56;7.70;98.70
45868;DHT22;31582;45.490;7.860;2023-03-01T17:42:23;7.40;98.50
45868;DHT22;31582;45.490;7.860;2023-03-01T17:44:50;6.90;99.90
45868;DHT22;31582;45.490;7.860;2023-03-01T17:47:17;6.90;99.90
45868;DHT22;31582;45.490;7.860;2023-03-01T17:49:44;6.90;99.90
45868;DHT22;31582;45.490;7.860;2023-03-01T17:52:11;6.80;99.90
45868;DHT22;31582;45.490;7.860;2023-03-01T17:54:38;6.50;99.90
45868;DHT22;31582;45.490;7.860;2023-03-01T17:57:05;6.20;99.90
45868;DHT22;31582;45.490;7.860;2023-03-01T17:59:35;6.20;99.90
45868;DHT22;31582;45.490;7.860;2023-03-01T18:02:02;6.10;99.90
45868;DHT22;31582;45.490;7.860;2023-03-01T18:04:30;6.10;99.90
45868;DHT22;31582;45.490;7.860;2023-03-01T18:06:58;6.20;99.90
45868;DHT22;31582;45.490;7.860;2023-03-01T18:09:28;6.20;99.90
45868;DHT22;31582;45.490;7.860;2023-03-01T18:11:56;6.30;99.90
45868;DHT22;31582;45.490;7.860;2023-03-01T18:14:24;6.50;99.90
45868;DHT22;31582;45.490;7.860;2023-03-01T18:16:55;6.40;99.90
45868;DHT22;31582;45.490;7.860;2023-03-01T18:19:22;6.20;99.90
45868;DHT22;31582;45.490;7.860;2023-03-01T18:21:49;6.00;99.90
45868;DHT22;31582;45.490;7.860;2023-03-01T18:24:16;6.00;99.90
45868;DHT22;31582;45.490;7.860;2023-03-01T18:26:42;6.00;99.90
45868;DHT22;31582;45.490;7.860;2023-03-01T18:29:09;5.90;99.90
45868;DHT22;31582;45.490;7.860;2023-03-01T18:31:36;6.00;99.90
45868;DHT22;31582;45.490;7.860;2023-03-01T18:34:05;5.90;99.90
45868;DHT22;31582;45.490;7.860;2023-03-01T18:36:34;6.00;99.90
45868;DHT22;31582;45.490;7.860;2023-03-01T18:39:03;6.00;99.90
45868;DHT22;31582;45.490;7.860;2023-03-01T18:41:31;6.30;99.90
45868;DHT22;31582;45.490;7.860;2023-03-01T18:43:59;6.20;99.90
45868;DHT22;31582;45.490;7.860;2023-03-01T18:46:26;6.20;99.90
45868;DHT22;31582;45.490;7.860;2023-03-01T18:48:54;6.20;99.90
45868;DHT22;31582;45.490;7.860;2023-03-01T18:51:26;6.00;99.90
45868;DHT22;31582;45.490;7.860;2023-03-01T18:53:55;5.80;99.90
45868;DHT22;31582;45.490;7.860;2023-03-01T18:56:25;5.80;99.90
45868;DHT22;31582;45.490;7.860;2023-03-01T18:58:53;5.70;99.90
45868;DHT22;31582;45.490;7.860;2023-03-01T19:01:23;5.70;99.90
45868;DHT22;31582;45.490;7.860;2023-03-01T19:03:52;6.00;99.90
45868;DHT22;31582;45.490;7.860;2023-03-01T19:06:19;6.00;99.90
45868;DHT22;31582;45.490;7.860;2023-03-01T19:08:48;5.90;99.90
45868;DHT22;31582;45.490;7.860;2023-03-01T19:11:17;5.90;99.90
45868;DHT22;31582;45.490;7.860;2023-03-01T19:13:45;5.90;99.90
45868;DHT22;31582;45.490;7.860;2023-03-01T19:16:17;5.70;99.90
45868;DHT22;31582;45.490;7.860;2023-03-01T19:18:45;5.80;99.90
45868;DHT22;31582;45.490;7.860;2023-03-01T19:21:21;5.90;99.90
45868;DHT22;31582;45.490;7.860;2023-03-01T19:23:51;5.90;99.90
45868;DHT22;31582;45.490;7.860;2023-03-01T19:26:20;5.80;99.90
45868;DHT22;31582;45.490;7.860;2023-03-01T19:28:50;5.50;99.90
45868;DHT22;31582;45.490;7.860;2023-03-01T19:31:21;5.60;99.90
45868;DHT22;31582;45.490;7.860;2023-03-01T19:33:50;5.60;99.90
45868;DHT22;31582;45.490;7.860;2023-03-01T19:36:20;5.60;99.90
45868;DHT22;31582;45.490;7.860;2023-03-01T19:38:48;5.50;99.90
45868;DHT22;31582;45.490;7.860;2023-03-01T19:41:18;5.30;99.90
45868;DHT22;31582;45.490;7.860;2023-03-01T19:43:48;5.30;99.90
45868;DHT22;31582;45.490;7.860;2023-03-01T19:46:14;5.40;99.90
45868;DHT22;31582;45.490;7.860;2023-03-01T19:48:42;5.50;99.90
45868;DHT22;31582;45.490;7.860;2023-03-01T19:51:11;5.50;99.90
45868;DHT22;31582;45.490;7.860;2023-03-01T19:53:39;5.30;99.90
45868;DHT22;31582;45.490;7.860;2023-03-01T19:56:07;5.10;99.90
45868;DHT22;31582;45.490;7.860;2023-03-01T19:58:35;5.20;99.90
45868;DHT22;31582;45.490;7.860;2023-03-01T20:01:03;5.00;99.90
45868;DHT22;31582;45.490;7.860;2023-03-01T20:03:33;4.80;99.90
45868;DHT22;31582;45.490;7.860;2023-03-01T20:06:08;4.70;99.90
45868;DHT22;31582;45.490;7.860;2023-03-01T20:08:36;4.80;99.90
45868;DHT22;31582;45.490;7.860;2023-03-01T20:11:05;4.80;99.90
45868;DHT22;31582;45.490;7.860;2023-03-01T20:13:33;4.90;99.90
45868;DHT22;31582;45.490;7.860;2023-03-01T20:16:00;4.80;99.90
45868;DHT22;31582;45.490;7.860;2023-03-01T20:18:34;5.00;99.90
45868;DHT22;31582;45.490;7.860;2023-03-01T20:21:02;4.80;99.90
45868;DHT22;31582;45.490;7.860;2023-03-01T20:23:47;4.70;99.90
45868;DHT22;31582;45.490;7.860;2023-03-01T20:26:14;4.70;99.90
45868;DHT22;31582;45.490;7.860;2023-03-01T20:28:46;4.70;99.90
45868;DHT22;31582;45.490;7.860;2023-03-01T20:31:15;4.70;99.90
45868;DHT22;31582;45.490;7.860;2023-03-01T20:33:45;4.90;99.90
45868;DHT22;31582;45.490;7.860;2023-03-01T20:36:13;4.90;99.90
45868;DHT22;31582;45.490;7.860;2023-03-01T20:38:41;4.80;99.90
45868;DHT22;31582;45.490;7.860;2023-03-01T20:41:12;4.90;99.90
45868;DHT22;31582;45.490;7.860;2023-03-01T20:43:42;4.70;99.90
45868;DHT22;31582;45.490;7.860;2023-03-01T20:46:12;4.80;99.90
45868;DHT22;31582;45.490;7.860;2023-03-01T20:48:41;4.80;99.90
45868;DHT22;31582;45.490;7.860;2023-03-01T20:51:12;4.90;99.90
45868;DHT22;31582;45.490;7.860;2023-03-01T20:53:41;4.80;99.90
45868;DHT22;31582;45.490;7.860;2023-03-01T20:56:11;5.20;99.90
45868;DHT22;31582;45.490;7.860;2023-03-01T20:58:39;5.10;99.90
45868;DHT22;31582;45.490;7.860;2023-03-01T21:01:07;5.20;99.90
45868;DHT22;31582;45.490;7.860;2023-03-01T21:03:34;5.40;99.90
45868;DHT22;31582;45.490;7.860;2023-03-01T21:06:03;5.70;99.90
45868;DHT22;31582;45.490;7.860;2023-03-01T21:08:32;5.60;99.90
45868;DHT22;31582;45.490;7.860;2023-03-01T21:11:00;5.40;99.90
45868;DHT22;31582;45.490;7.860;2023-03-01T21:13:33;5.50;99.90
45868;DHT22;31582;45.490;7.860;2023-03-01T21:16:04;5.20;99.90
45868;DHT22;31582;45.490;7.860;2023-03-01T21:18:34;4.80;99.90
45868;DHT22;31582;45.490;7.860;2023-03-01T21:21:05;4.80;99.90
45868;DHT22;31582;45.490;7.860;2023-03-01T21:23:35;5.00;99.90
45868;DHT22;31582;45.490;7.860;2023-03-01T21:26:14;4.90;99.90
45868;DHT22;31582;45.490;7.860;2023-03-01T21:28:42;5.20;99.90
45868;DHT22;31582;45.490;7.860;2023-03-01T21:31:16;5.20;99.90
45868;DHT22;31582;45.490;7.860;2023-03-01T21:33:46;5.50;99.90
45868;DHT22;31582;45.490;7.860;2023-03-01T21:36:14;5.70;99.90
45868;DHT22;31582;45.490;7.860;2023-03-01T21:38:42;5.80;99.90
45868;DHT22;31582;45.490;7.860;2023-03-01T21:41:30;5.80;99.90
45868;DHT22;31582;45.490;7.860;2023-03-01T21:43:59;5.80;99.90
45868;DHT22;31582;45.490;7.860;2023-03-01T21:46:28;5.80;99.90
45868;DHT22;31582;45.490;7.860;2023-03-01T21:48:58;5.90;99.90
45868;DHT22;31582;45.490;7.860;2023-03-01T21:51:26;5.80;99.90
45868;DHT22;31582;45.490;7.860;2023-03-01T21:53:54;5.70;99.90
45868;DHT22;31582;45.490;7.860;2023-03-01T21:56:24;5.70;99.90
45868;DHT22;31582;45.490;7.860;2023-03-01T21:58:52;5.80;99.90
45868;DHT22;31582;45.490;7.860;2023-03-01T22:01:22;5.70;99.90
45868;DHT22;31582;45.490;7.860;2023-03-01T22:03:58;5.80;99.90
45868;DHT22;31582;45.490;7.860;2023-03-01T22:06:29;5.70;99.90
45868;DHT22;31582;45.490;7.860;2023-03-01T22:08:59;5.90;99.90
45868;DHT22;31582;45.490;7.860;2023-03-01T22:11:27;5.80;99.90
45868;DHT22;31582;45.490;7.860;2023-03-01T22:13:55;5.80;99.90
45868;DHT22;31582;45.490;7.860;2023-03-01T22:16:26;5.90;99.90
45868;DHT22;31582;45.490;7.860;2023-03-01T22:18:54;5.90;99.90
45868;DHT22;31582;45.490;7.860;2023-03-01T22:21:22;5.70;99.90
45868;DHT22;31582;45.490;7.860;2023-03-01T22:23:51;5.70;99.90
45868;DHT22;31582;45.490;7.860;2023-03-01T22:26:27;5.80;99.90
45868;DHT22;31582;45.490;7.860;2023-03-01T22:28:56;5.90;99.90
45868;DHT22;31582;45.490;7.860;2023-03-01T22:31:24;5.60;99.90
45868;DHT22;31582;45.490;7.860;2023-03-01T22:33:51;5.70;99.90
45868;DHT22;31582;45.490;7.860;2023-03-01T22:36:19;5.50;99.90
45868;DHT22;31582;45.490;7.860;2023-03-01T22:38:46;5.10;99.90
45868;DHT22;31582;45.490;7.860;2023-03-01T22:41:13;5.20;99.90
45868;DHT22;31582;45.490;7.860;2023-03-01T22:43:40;5.60;99.90
45868;DHT22;31582;45.490;7.860;2023-03-01T22:46:15;5.70;99.90
45868;DHT22;31582;45.490;7.860;2023-03-01T22:48:44;5.50;99.90
45868;DHT22;31582;45.490;7.860;2023-03-01T22:51:26;5.10;99.90
45868;DHT22;31582;45.490;7.860;2023-03-01T22:53:55;5.20;99.90
45868;DHT22;31582;45.490;7.860;2023-03-01T22:56:29;5.10;99.90
45868;DHT22;31582;45.490;7.860;2023-03-01T22:58:57;5.10;99.90
45868;DHT22;31582;45.490;7.860;2023-03-01T23:01:25;5.30;99.90
45868;DHT22;31582;45.490;7.860;2023-03-01T23:03:53;5.60;99.90
45868;DHT22;31582;45.490;7.860;2023-03-01T23:06:21;5.50;99.90
45868;DHT22;31582;45.490;7.860;2023-03-01T23:08:50;5.20;99.90
45868;DHT22;31582;45.490;7.860;2023-03-01T23:11:18;5.30;99.90
45868;DHT22;31582;45.490;7.860;2023-03-01T23:13:46;5.40;99.90
45868;DHT22;31582;45.490;7.860;2023-03-01T23:16:13;5.40;99.90
45868;DHT22;31582;45.490;7.860;2023-03-01T23:18:40;5.30;99.90
45868;DHT22;31582;45.490;7.860;2023-03-01T23:21:15;5.40;99.90
45868;DHT22;31582;45.490;7.860;2023-03-01T23:23:45;5.40;99.90
45868;DHT22;31582;45.490;7.860;2023-03-01T23:26:14;5.30;99.90
45868;DHT22;31582;45.490;7.860;2023-03-01T23:28:41;5.40;99.90
45868;DHT22;31582;45.490;7.860;2023-03-01T23:31:11;5.40;99.90
45868;DHT22;31582;45.490;7.860;2023-03-01T23:33:43;5.40;99.90
45868;DHT22;31582;45.490;7.860;2023-03-01T23:36:20;5.40;99.90
45868;DHT22;31582;45.490;7.860;2023-03-01T23:38:50;5.40;99.90
45868;DHT22;31582;45.490;7.860;2023-03-01T23:41:22;5.50;99.90
45868;DHT22;31582;45.490;7.860;2023-03-01T23:43:53;5.40;99.90
45868;DHT22;31582;45.490;7.860;2023-03-01T23:46:23;5.30;99.90
45868;DHT22;31582;45.490;7.860;2023-03-01T23:48:51;5.40;99.90
45868;DHT22;31582;45.490;7.860;2023-03-01T23:51:19;5.50;99.90
45868;DHT22;31582;45.490;7.860;2023-03-01T23:53:53;5.40;99.90
45868;DHT22;31582;45.490;7.860;2023-03-01T23:56:23;5.50;99.90
45868;DHT22;31582;45.490;7.860;2023-03-01T23:58:57;5.20;99.90
